createdAt,value
2019-04-29T00:01:38.901Z,15.61
2019-04-29T00:04:09.764Z,15.59
2019-04-29T00:06:41.696Z,15.55
2019-04-29T00:09:19.052Z,15.49
2019-04-29T00:11:50.115Z,15.46
2019-04-29T00:14:20.815Z,15.40
2019-04-29T00:17:03.882Z,15.31
2019-04-29T00:19:42.058Z,15.20
2019-04-29T00:22:12.858Z,15.09
2019-04-29T00:24:44.507Z,15.02
2019-04-29T00:27:15.750Z,14.92
2019-04-29T00:29:46.502Z,14.75
2019-04-29T00:32:17.165Z,14.61
2019-04-29T00:34:49.033Z,14.49
2019-04-29T00:37:41.429Z,14.39
2019-04-29T00:40:36.749Z,14.34
2019-04-29T00:43:30.225Z,14.27
2019-04-29T00:46:01.013Z,14.19
2019-04-29T00:48:31.628Z,14.15
2019-04-29T00:51:02.355Z,14.16
2019-04-29T00:53:34.412Z,14.09
2019-04-29T00:56:05.936Z,14.11
2019-04-29T00:58:36.722Z,14.02
2019-04-29T01:01:12.106Z,14.01
2019-04-29T01:03:42.996Z,13.97
2019-04-29T01:06:13.538Z,13.95
2019-04-29T01:08:44.239Z,13.95
2019-04-29T01:11:15.169Z,13.97
2019-04-29T01:13:45.761Z,14.00
2019-04-29T01:16:17.830Z,13.95
2019-04-29T01:18:49.734Z,13.93
2019-04-29T01:21:20.413Z,13.97
2019-04-29T01:23:51.322Z,14.07
2019-04-29T01:26:40.561Z,14.15
2019-04-29T01:29:12.475Z,14.24
2019-04-29T01:31:43.114Z,14.26
2019-04-29T01:34:20.415Z,14.26
2019-04-29T01:36:51.020Z,14.20
2019-04-29T01:39:25.758Z,14.16
2019-04-29T01:42:12.389Z,14.15
2019-04-29T01:44:43.104Z,14.21
2019-04-29T01:47:13.724Z,14.24
2019-04-29T01:49:44.284Z,14.17
2019-04-29T01:52:15.299Z,14.10
2019-04-29T01:54:45.912Z,14.07
2019-04-29T01:57:16.489Z,14.02
2019-04-29T01:59:47.164Z,14.07
2019-04-29T02:02:17.866Z,14.15
2019-04-29T02:04:48.483Z,14.14
2019-04-29T02:07:20.804Z,14.09
2019-04-29T02:10:26.756Z,13.95
2019-04-29T02:12:57.519Z,13.94
2019-04-29T02:15:28.101Z,14.05
2019-04-29T02:17:58.803Z,14.05
2019-04-29T02:20:29.714Z,14.02
2019-04-29T02:23:37.598Z,14.06
2019-04-29T02:26:08.429Z,14.05
2019-04-29T02:28:39.353Z,13.92
2019-04-29T02:31:27.732Z,13.88
2019-04-29T02:33:58.453Z,13.88
2019-04-29T02:36:30.140Z,13.87
2019-04-29T02:39:35.152Z,13.85
2019-04-29T02:42:29.848Z,13.83
2019-04-29T02:45:06.256Z,13.75
2019-04-29T02:47:37.010Z,13.82
2019-04-29T02:50:07.702Z,13.87
2019-04-29T02:52:38.204Z,14.00
2019-04-29T02:55:10.915Z,14.14
2019-04-29T02:57:46.658Z,14.10
2019-04-29T03:00:28.256Z,14.03
2019-04-29T03:03:23.842Z,14.05
2019-04-29T03:06:00.747Z,14.12
2019-04-29T03:08:31.623Z,14.22
2019-04-29T03:11:02.491Z,14.28
2019-04-29T03:13:33.045Z,14.46
2019-04-29T03:16:04.287Z,14.54
2019-04-29T03:18:40.445Z,14.54
2019-04-29T03:21:20.125Z,14.58
2019-04-29T03:23:50.842Z,14.72
2019-04-29T03:26:21.384Z,14.81
2019-04-29T03:28:52.245Z,14.90
2019-04-29T03:31:23.136Z,14.91
2019-04-29T03:33:53.789Z,14.86
2019-04-29T03:36:24.481Z,14.98
2019-04-29T03:38:55.246Z,15.09
2019-04-29T03:41:29.115Z,15.23
2019-04-29T03:43:59.794Z,15.47
2019-04-29T03:46:30.540Z,15.64
2019-04-29T03:49:01.214Z,15.57
2019-04-29T03:51:31.877Z,15.58
2019-04-29T03:54:02.679Z,15.49
2019-04-29T03:56:36.231Z,15.56
2019-04-29T03:59:08.689Z,15.51
2019-04-29T04:01:50.613Z,15.53
2019-04-29T04:04:38.453Z,15.61
2019-04-29T04:07:26.811Z,15.73
2019-04-29T04:09:58.734Z,15.94
2019-04-29T04:12:29.487Z,16.16
2019-04-29T04:15:00.262Z,16.54
2019-04-29T04:17:42.714Z,17.30
2019-04-29T04:20:13.803Z,18.46
2019-04-29T04:22:49.771Z,19.99
2019-04-29T04:25:20.641Z,21.23
2019-04-29T04:27:51.361Z,22.09
2019-04-29T04:30:22.979Z,22.60
2019-04-29T04:32:53.800Z,23.09
2019-04-29T04:35:24.457Z,23.53
2019-04-29T04:37:55.255Z,23.65
2019-04-29T04:40:33.697Z,23.60
2019-04-29T04:43:05.916Z,23.99
2019-04-29T04:45:36.559Z,24.19
2019-04-29T04:48:43.499Z,25.05
2019-04-29T04:51:14.329Z,25.77
2019-04-29T04:53:45.188Z,26.35
2019-04-29T04:56:16.796Z,27.32
2019-04-29T04:58:47.393Z,28.02
2019-04-29T05:01:18.386Z,28.66
2019-04-29T05:03:49.147Z,28.67
2019-04-29T05:06:21.297Z,28.09
2019-04-29T05:08:52.014Z,27.20
2019-04-29T05:11:22.503Z,26.60
2019-04-29T05:13:53.474Z,26.30
2019-04-29T05:16:25.233Z,26.07
2019-04-29T05:18:55.875Z,26.16
2019-04-29T05:21:26.565Z,27.02
2019-04-29T05:23:57.320Z,28.22
2019-04-29T05:26:29.139Z,29.16
2019-04-29T05:29:00.044Z,30.12
2019-04-29T05:31:30.692Z,30.68
2019-04-29T05:34:01.336Z,30.83
2019-04-29T05:36:45.357Z,32.18
2019-04-29T05:39:25.536Z,33.22
2019-04-29T05:41:56.248Z,34.16
2019-04-29T05:44:52.191Z,34.95
2019-04-29T05:47:46.422Z,35.82
2019-04-29T05:50:28.946Z,36.21
2019-04-29T05:53:16.370Z,35.94
2019-04-29T05:55:44.135Z,35.40
2019-04-29T05:58:16.315Z,34.45
2019-04-29T06:11:53.980Z,32.31
2019-04-29T06:14:25.712Z,33.46
2019-04-29T06:16:57.552Z,33.24
2019-04-29T06:19:28.845Z,32.39
2019-04-29T06:22:03.790Z,33.36
2019-04-29T06:24:32.988Z,33.45
2019-04-29T06:27:05.452Z,33.27
2019-04-29T06:29:36.513Z,33.60
2019-04-29T06:32:11.786Z,33.45
2019-04-29T06:42:33.578Z,36.26
2019-04-29T06:45:04.346Z,35.47
2019-04-29T06:47:34.887Z,33.51
2019-04-29T06:53:01.224Z,32.51
2019-04-29T06:55:34.806Z,31.13
2019-04-29T06:58:06.105Z,29.79
2019-04-29T07:00:37.495Z,29.43
2019-04-29T07:03:08.175Z,29.03
2019-04-29T07:05:39.262Z,28.81
2019-04-29T07:08:10.182Z,29.79
2019-04-29T07:13:57.584Z,30.22
2019-04-29T07:23:40.277Z,28.77
2019-04-29T07:26:12.535Z,28.36
2019-04-29T07:28:43.577Z,28.12
2019-04-29T07:31:14.611Z,26.92
2019-04-29T08:00:58.781Z,24.71
2019-04-29T08:03:29.425Z,24.42
2019-04-29T08:06:01.024Z,24.24
2019-04-29T08:08:32.710Z,23.95
2019-04-29T08:11:04.504Z,24.07
2019-04-29T08:13:35.544Z,23.96
2019-04-29T08:16:06.473Z,23.97
2019-04-29T08:18:37.209Z,23.65
2019-04-29T08:21:10.257Z,23.80
2019-04-29T08:23:42.451Z,23.67
2019-04-29T08:26:13.164Z,23.55
2019-04-29T08:28:44.396Z,23.79
2019-04-29T08:31:16.604Z,23.66
2019-04-29T08:33:48.732Z,23.97
2019-04-29T08:36:19.888Z,23.98
2019-04-29T08:38:51.790Z,24.35
2019-04-29T08:41:28.452Z,23.98
2019-04-29T08:47:10.838Z,24.08
2019-04-29T08:49:41.509Z,24.01
2019-04-29T08:52:13.680Z,23.99
2019-04-29T08:58:17.581Z,24.09
2019-04-29T09:00:51.278Z,23.86
2019-04-29T09:26:13.574Z,22.39
2019-04-29T09:28:44.474Z,22.52
2019-04-29T09:34:35.956Z,22.12
2019-04-29T09:37:07.082Z,22.16
2019-04-29T09:39:43.381Z,22.31
2019-04-29T09:42:51.840Z,22.53
2019-04-29T09:45:34.861Z,21.76
2019-04-29T09:55:39.888Z,22.08
2019-04-29T09:58:28.245Z,21.25
2019-04-29T10:01:21.208Z,21.39
2019-04-29T10:04:05.515Z,21.46
2019-04-29T10:06:58.460Z,20.70
2019-04-29T10:09:29.360Z,20.95
2019-04-29T10:15:07.669Z,20.50
2019-04-29T10:17:57.335Z,20.77
2019-04-29T10:20:47.730Z,21.21
2019-04-29T10:23:18.503Z,21.34
2019-04-29T10:25:49.443Z,21.55
2019-04-29T10:31:49.041Z,21.99
2019-04-29T10:34:20.334Z,22.27
2019-04-29T10:36:52.537Z,22.47
2019-04-29T10:40:47.209Z,22.60
2019-04-29T13:37:27.507Z,19.31
2019-04-29T13:39:58.807Z,19.08
2019-04-29T13:42:29.399Z,19.06
2019-04-29T13:45:07.794Z,19.19
2019-04-29T13:47:54.409Z,19.19
2019-04-29T13:50:40.249Z,19.19
2019-04-29T13:53:16.703Z,19.18
2019-04-29T13:55:49.179Z,19.10
2019-04-29T13:58:22.266Z,19.03
2019-04-29T14:01:01.940Z,18.92
2019-04-29T14:03:47.165Z,19.07
2019-04-29T14:06:18.674Z,19.02
2019-04-29T14:08:54.109Z,19.03
2019-04-29T14:11:27.277Z,19.04
2019-04-29T14:13:57.956Z,18.88
2019-04-29T14:16:28.982Z,18.84
2019-04-29T14:19:00.910Z,18.73
2019-04-29T14:21:32.148Z,18.59
2019-04-29T14:24:03.035Z,18.60
2019-04-29T14:26:37.072Z,18.67
2019-04-29T14:29:06.885Z,18.61
2019-04-29T14:31:37.720Z,18.57
2019-04-29T14:34:20.370Z,18.53
2019-04-29T14:36:50.647Z,18.68
2019-04-29T14:39:36.090Z,18.83
2019-04-29T14:41:57.858Z,18.95
2019-04-29T14:44:58.438Z,18.80
2019-04-29T14:47:36.975Z,18.86
2019-04-29T14:50:10.656Z,18.85
2019-04-29T14:52:44.772Z,18.72
2019-04-29T14:55:15.061Z,18.56
2019-04-29T14:57:46.036Z,18.57
2019-04-29T15:00:28.048Z,18.50
2019-04-29T15:03:19.202Z,18.42
2019-04-29T15:05:50.259Z,18.32
2019-04-29T15:08:23.270Z,18.44
2019-04-29T15:10:54.477Z,18.50
2019-04-29T15:13:27.017Z,18.45
2019-04-29T15:16:09.417Z,18.32
2019-04-29T15:18:50.654Z,18.28
2019-04-29T15:21:43.728Z,18.20
2019-04-29T15:24:12.553Z,18.21
2019-04-29T15:26:43.302Z,18.20
2019-04-29T15:32:58.044Z,18.06
2019-04-29T15:35:29.061Z,17.95
2019-04-29T15:37:59.819Z,17.87
2019-04-29T15:40:31.314Z,17.81
2019-04-29T15:43:02.178Z,17.77
2019-04-29T15:45:34.243Z,17.68
2019-04-29T15:48:06.446Z,17.74
2019-04-29T15:50:38.994Z,17.62
2019-04-29T15:53:10.132Z,17.58
2019-04-29T15:55:41.310Z,17.53
2019-04-29T15:58:12.829Z,17.48
2019-04-29T16:00:43.831Z,17.45
2019-04-29T16:03:17.885Z,17.49
2019-04-29T16:06:20.995Z,17.54
2019-04-29T16:09:04.954Z,17.41
2019-04-29T16:11:53.178Z,17.37
2019-04-29T16:14:24.796Z,17.24
2019-04-29T16:16:55.626Z,17.13
2019-04-29T16:19:26.379Z,17.11
2019-04-29T16:21:57.290Z,17.03
2019-04-29T16:24:37.642Z,17.05
2019-04-29T16:27:01.125Z,17.04
2019-04-29T16:29:33.017Z,16.92
2019-04-29T16:32:05.035Z,16.76
2019-04-29T16:34:37.394Z,16.69
2019-04-29T16:37:09.019Z,16.68
2019-04-29T16:39:41.375Z,16.72
2019-04-29T16:42:25.321Z,16.67
2019-04-29T16:44:56.253Z,16.63
2019-04-29T16:47:27.218Z,16.52
2019-04-29T16:50:04.645Z,16.49
2019-04-29T16:52:31.869Z,16.38
2019-04-29T16:55:04.206Z,16.35
2019-04-29T16:57:35.195Z,16.33
2019-04-29T17:00:13.664Z,16.31
2019-04-29T17:02:40.127Z,16.20
2019-04-29T17:05:11.438Z,16.23
2019-04-29T17:07:42.378Z,16.21
2019-04-29T17:10:24.174Z,16.19
2019-04-29T17:12:57.438Z,16.13
2019-04-29T17:15:30.215Z,16.08
2019-04-29T17:18:01.151Z,16.03
2019-04-29T17:20:31.749Z,15.95
2019-04-29T17:23:02.690Z,15.95
2019-04-29T17:25:33.363Z,15.87
2019-04-29T17:28:25.462Z,15.91
2019-04-29T17:31:22.130Z,15.91
2019-04-29T17:34:07.867Z,15.79
2019-04-29T17:36:39.132Z,15.79
2019-04-29T17:39:10.525Z,15.66
2019-04-29T17:41:42.649Z,15.62
2019-04-29T17:44:30.749Z,15.59
2019-04-29T17:47:07.071Z,15.50
2019-04-29T17:50:06.532Z,15.46
2019-04-29T17:52:35.269Z,15.41
2019-04-29T17:55:24.964Z,15.38
2019-04-29T17:58:08.647Z,15.40
2019-04-29T18:00:58.288Z,15.30
2019-04-29T18:03:41.615Z,15.26
2019-04-29T18:06:24.270Z,15.24
2019-04-29T18:09:13.511Z,15.22
2019-04-29T18:11:51.595Z,15.23
2019-04-29T18:14:16.956Z,15.29
2019-04-29T18:16:47.937Z,15.26
2019-04-29T18:19:39.414Z,15.21
2019-04-29T18:22:35.497Z,15.15
2019-04-29T18:25:31.051Z,15.18
2019-04-29T18:28:00.551Z,15.15
2019-04-29T18:30:36.021Z,15.10
2019-04-29T18:33:05.381Z,15.05
2019-04-29T18:35:36.843Z,15.05
2019-04-29T18:38:11.952Z,15.05
2019-04-29T18:40:42.266Z,15.02
2019-04-29T18:43:15.025Z,14.99
2019-04-29T18:45:55.839Z,14.96
2019-04-29T18:48:21.476Z,14.94
2019-04-29T18:50:51.182Z,14.95
2019-04-29T18:53:22.576Z,14.93
2019-04-29T18:55:55.021Z,14.89
2019-04-29T18:58:26.756Z,14.87
2019-04-29T19:00:59.117Z,14.88
2019-04-29T19:03:46.676Z,14.89
2019-04-29T19:06:17.401Z,14.86
2019-04-29T19:08:49.065Z,14.84
2019-04-29T19:11:29.892Z,14.84
2019-04-29T19:13:52.427Z,14.84
2019-04-29T19:34:45.932Z,14.64
2019-04-29T19:37:16.945Z,14.62
2019-04-29T19:39:47.596Z,14.59
2019-04-29T19:42:28.715Z,14.54
2019-04-29T19:44:50.659Z,14.55
2019-04-29T19:47:21.611Z,14.50
2019-04-29T19:49:53.362Z,14.53
2019-04-29T19:52:30.495Z,14.54
2019-04-29T19:54:57.315Z,14.50
2019-04-29T19:57:29.613Z,14.53
2019-04-29T20:00:00.906Z,14.45
2019-04-29T20:02:32.579Z,14.43
2019-04-29T20:05:23.411Z,14.47
2019-04-29T20:07:52.305Z,14.44
2019-04-29T20:10:28.434Z,14.44
2019-04-29T20:12:57.799Z,14.48
2019-04-29T20:15:33.968Z,14.48
2019-04-29T20:18:23.758Z,14.39
2019-04-29T20:21:08.835Z,14.34
2019-04-29T20:23:38.472Z,14.39
2019-04-29T20:26:15.479Z,14.34
2019-04-29T20:28:40.283Z,14.37
2019-04-29T20:31:20.925Z,14.36
2019-04-29T20:33:47.003Z,14.34
2019-04-29T20:36:29.051Z,14.40
2019-04-29T20:38:50.864Z,14.39
2019-04-29T20:41:38.112Z,14.37
2019-04-29T20:43:56.206Z,14.37
2019-04-29T20:46:41.033Z,14.35
2019-04-29T20:49:00.062Z,14.40
2019-04-29T20:51:47.833Z,14.35
2019-04-29T20:54:15.918Z,14.32
2019-04-29T20:56:42.414Z,14.41
2019-04-29T20:59:15.501Z,14.38
2019-04-29T21:01:52.456Z,14.41
2019-04-29T21:04:33.795Z,14.40
2019-04-29T21:07:00.447Z,14.39
2019-04-29T21:09:30.155Z,14.35
2019-04-29T21:12:21.467Z,14.36
2019-04-29T21:14:57.876Z,14.35
2019-04-29T21:17:31.831Z,14.30
2019-04-29T21:20:01.210Z,14.32
2019-04-29T21:22:32.060Z,14.32
2019-04-29T21:25:03.148Z,14.32
2019-04-29T21:27:35.390Z,14.36
2019-04-29T21:30:06.520Z,14.35
2019-04-29T21:32:38.961Z,14.37
2019-04-29T21:35:27.026Z,14.38
2019-04-29T21:38:18.032Z,14.37
2019-04-29T21:40:56.011Z,14.35
2019-04-29T21:43:28.744Z,14.35
2019-04-29T21:46:00.163Z,14.26
2019-04-29T21:48:34.053Z,14.21
2019-04-29T21:51:06.828Z,14.25
2019-04-29T21:53:40.248Z,14.23
2019-04-29T21:56:10.548Z,14.21
2019-04-29T21:58:41.546Z,14.21
2019-04-29T22:01:16.322Z,14.24
2019-04-29T22:03:47.003Z,14.22
2019-04-29T22:06:17.582Z,14.20
2019-04-29T22:08:48.600Z,14.22
2019-04-29T22:11:19.906Z,14.23
2019-04-29T22:13:50.830Z,14.22
2019-04-29T22:16:21.588Z,14.24
2019-04-29T22:18:53.049Z,14.23
2019-04-29T22:21:25.909Z,14.20
2019-04-29T22:23:56.533Z,14.25
2019-04-29T22:26:27.271Z,14.28
2019-04-29T22:29:03.139Z,14.20
2019-04-29T22:31:33.882Z,14.19
2019-04-29T22:34:05.557Z,14.17
2019-04-29T22:36:36.363Z,14.12
2019-04-29T22:39:07.961Z,14.05
2019-04-29T22:41:57.523Z,14.06
2019-04-29T22:44:28.360Z,14.03
2019-04-29T22:46:59.155Z,14.01
2019-04-29T22:49:29.759Z,14.01
2019-04-29T22:52:00.437Z,13.99
2019-04-29T22:54:31.369Z,14.00
2019-04-29T22:57:05.599Z,13.97
2019-04-29T22:59:36.595Z,13.93
2019-04-29T23:02:07.517Z,13.90
2019-04-29T23:04:38.183Z,13.88
2019-04-29T23:07:09.051Z,13.84
2019-04-29T23:09:41.653Z,13.74
2019-04-29T23:12:18.265Z,13.74
2019-04-29T23:14:47.215Z,13.71
2019-04-29T23:17:18.083Z,13.73
2019-04-29T23:19:51.855Z,13.74
2019-04-29T23:22:41.748Z,13.80
2019-04-29T23:25:21.681Z,13.82
2019-04-29T23:27:52.711Z,13.84
2019-04-29T23:30:27.115Z,13.81
2019-04-29T23:32:58.244Z,13.81
2019-04-29T23:35:29.112Z,13.78
2019-04-29T23:38:04.041Z,13.75
2019-04-29T23:40:33.928Z,13.74
2019-04-29T23:43:06.171Z,13.70
2019-04-29T23:45:36.945Z,13.65
2019-04-29T23:48:07.880Z,13.64
2019-04-29T23:50:38.751Z,13.63
2019-04-29T23:53:09.852Z,13.68
2019-04-29T23:55:40.775Z,13.68
2019-04-29T23:58:32.611Z,13.63
